sensor_id;sensor_type;location;lat;lon;timestamp;pressure;altitude;pressure_sealevel;temperature;humidity
31088;BME280;17745;55.914;37.554;2024-03-02T00:01:44;100394.09;;;7.03;49.58
31088;BME280;17745;55.914;37.554;2024-03-02T00:04:12;100388.44;;;6.99;49.62
31088;BME280;17745;55.914;37.554;2024-03-02T00:06:39;100384.59;;;6.95;49.67
31088;BME280;17745;55.914;37.554;2024-03-02T00:09:08;100385.59;;;6.94;49.70
31088;BME280;17745;55.914;37.554;2024-03-02T00:11:37;100383.16;;;6.93;49.71
31088;BME280;17745;55.914;37.554;2024-03-02T00:14:04;100382.31;;;6.92;49.74
31088;BME280;17745;55.914;37.554;2024-03-02T00:16:31;100383.16;;;6.93;49.74
31088;BME280;17745;55.914;37.554;2024-03-02T00:19:02;100379.69;;;6.92;49.74
31088;BME280;17745;55.914;37.554;2024-03-02T00:21:31;100375.84;;;6.95;49.73
31088;BME280;17745;55.914;37.554;2024-03-02T00:23:59;100380.13;;;6.96;49.72
31088;BME280;17745;55.914;37.554;2024-03-02T00:26:28;100373.22;;;6.95;49.73
31088;BME280;17745;55.914;37.554;2024-03-02T00:28:55;100378.06;;;6.91;49.74
31088;BME280;17745;55.914;37.554;2024-03-02T00:31:23;100369.78;;;6.87;49.80
31088;BME280;17745;55.914;37.554;2024-03-02T00:33:51;100368.16;;;6.86;49.83
31088;BME280;17745;55.914;37.554;2024-03-02T00:36:21;100377.69;;;6.87;49.83
31088;BME280;17745;55.914;37.554;2024-03-02T00:38:50;100371.19;;;6.90;49.79
31088;BME280;17745;55.914;37.554;2024-03-02T00:41:21;100375.44;;;6.91;49.75
31088;BME280;17745;55.914;37.554;2024-03-02T00:43:55;100375.44;;;6.91;49.77
31088;BME280;17745;55.914;37.554;2024-03-02T00:46:24;100374.44;;;6.92;49.79
31088;BME280;17745;55.914;37.554;2024-03-02T00:48:52;100376.25;;;6.92;49.77
31088;BME280;17745;55.914;37.554;2024-03-02T00:51:21;100370.16;;;6.91;49.79
31088;BME280;17745;55.914;37.554;2024-03-02T00:53:48;100378.91;;;6.92;49.83
31088;BME280;17745;55.914;37.554;2024-03-02T00:56:16;100382.53;;;6.91;49.78
31088;BME280;17745;55.914;37.554;2024-03-02T00:58:43;100380.69;;;6.91;49.83
31088;BME280;17745;55.914;37.554;2024-03-02T01:01:11;100384.97;;;6.92;49.86
31088;BME280;17745;55.914;37.554;2024-03-02T01:03:39;100389.44;;;6.92;49.84
31088;BME280;17745;55.914;37.554;2024-03-02T01:06:07;100382.13;;;6.87;49.90
31088;BME280;17745;55.914;37.554;2024-03-02T01:08:34;100382.94;;;6.87;49.95
31088;BME280;17745;55.914;37.554;2024-03-02T01:11:02;100395.09;;;6.89;49.95
31088;BME280;17745;55.914;37.554;2024-03-02T01:13:29;100387.19;;;6.89;49.92
31088;BME280;17745;55.914;37.554;2024-03-02T01:15:59;100396.31;;;6.93;49.87
31088;BME280;17745;55.914;37.554;2024-03-02T01:18:28;100397.31;;;6.92;49.92
31088;BME280;17745;55.914;37.554;2024-03-02T01:20:56;100396.09;;;6.87;49.93
31088;BME280;17745;55.914;37.554;2024-03-02T01:23:23;100393.06;;;6.91;49.95
31088;BME280;17745;55.914;37.554;2024-03-02T01:25:51;100399.34;;;6.90;49.90
31088;BME280;17745;55.914;37.554;2024-03-02T01:28:19;100399.34;;;6.90;49.86
31088;BME280;17745;55.914;37.554;2024-03-02T01:30:46;100399.97;;;6.92;49.82
31088;BME280;17745;55.914;37.554;2024-03-02T01:33:13;100398.75;;;6.94;49.72
31088;BME280;17745;55.914;37.554;2024-03-02T01:35:42;100396.72;;;6.96;49.65
31088;BME280;17745;55.914;37.554;2024-03-02T01:38:09;100394.47;;;6.93;49.71
31088;BME280;17745;55.914;37.554;2024-03-02T01:40:40;100394.69;;;6.92;49.74
31088;BME280;17745;55.914;37.554;2024-03-02T01:43:07;100401.97;;;6.90;49.79
31088;BME280;17745;55.914;37.554;2024-03-02T01:45:35;100394.28;;;6.88;49.86
31088;BME280;17745;55.914;37.554;2024-03-02T01:48:03;100400.53;;;6.87;49.87
31088;BME280;17745;55.914;37.554;2024-03-02T01:50:31;100394.28;;;6.88;49.89
31088;BME280;17745;55.914;37.554;2024-03-02T01:53:00;100391.03;;;6.86;49.93
31088;BME280;17745;55.914;37.554;2024-03-02T01:55:28;100391.25;;;6.84;49.95
31088;BME280;17745;55.914;37.554;2024-03-02T01:57:56;100390.00;;;6.80;50.00
31088;BME280;17745;55.914;37.554;2024-03-02T02:00:23;100392.22;;;6.77;50.08
31088;BME280;17745;55.914;37.554;2024-03-02T02:02:52;100398.28;;;6.77;50.03
31088;BME280;17745;55.914;37.554;2024-03-02T02:05:20;100391.00;;;6.79;49.97
31088;BME280;17745;55.914;37.554;2024-03-02T02:07:48;100394.62;;;6.78;50.01
31088;BME280;17745;55.914;37.554;2024-03-02T02:10:17;100391.41;;;6.76;50.04
31088;BME280;17745;55.914;37.554;2024-03-02T02:12:44;100399.69;;;6.73;50.10
31088;BME280;17745;55.914;37.554;2024-03-02T02:15:24;100389.16;;;6.73;50.12
31088;BME280;17745;55.914;37.554;2024-03-02T02:17:52;100392.22;;;6.77;50.09
31088;BME280;17745;55.914;37.554;2024-03-02T02:20:39;100395.47;;;6.79;50.04
31088;BME280;17745;55.914;37.554;2024-03-02T02:23:08;100392.63;;;6.74;50.09
31088;BME280;17745;55.914;37.554;2024-03-02T02:25:35;100401.50;;;6.72;50.16
31088;BME280;17745;55.914;37.554;2024-03-02T02:28:03;100400.53;;;6.74;50.19
31088;BME280;17745;55.914;37.554;2024-03-02T02:30:31;100401.50;;;6.72;50.14
31088;BME280;17745;55.914;37.554;2024-03-02T02:32:58;100401.72;;;6.71;50.13
31088;BME280;17745;55.914;37.554;2024-03-02T02:35:25;100403.53;;;6.70;50.12
31088;BME280;17745;55.914;37.554;2024-03-02T02:37:54;100413.87;;;6.72;50.15
31088;BME280;17745;55.914;37.554;2024-03-02T02:40:23;100414.03;;;6.70;50.15
31088;BME280;17745;55.914;37.554;2024-03-02T02:42:50;100417.69;;;6.69;50.17
31088;BME280;17745;55.914;37.554;2024-03-02T02:45:18;100415.66;;;6.71;50.08
31088;BME280;17745;55.914;37.554;2024-03-02T02:47:45;100425.41;;;6.71;50.10
31088;BME280;17745;55.914;37.554;2024-03-02T02:50:12;100418.12;;;6.73;50.15
31088;BME280;17745;55.914;37.554;2024-03-02T02:52:40;100416.09;;;6.75;50.12
31088;BME280;17745;55.914;37.554;2024-03-02T02:55:08;100410.84;;;6.75;50.14
31088;BME280;17745;55.914;37.554;2024-03-02T02:57:37;100413.69;;;6.74;50.16
31088;BME280;17745;55.914;37.554;2024-03-02T03:00:06;100418.94;;;6.74;50.22
31088;BME280;17745;55.914;37.554;2024-03-02T03:02:36;100420.94;;;6.71;50.23
31088;BME280;17745;55.914;37.554;2024-03-02T03:05:04;100413.25;;;6.70;50.26
31088;BME280;17745;55.914;37.554;2024-03-02T03:07:32;100415.28;;;6.68;50.28
31088;BME280;17745;55.914;37.554;2024-03-02T03:09:59;100416.47;;;6.65;50.29
31088;BME280;17745;55.914;37.554;2024-03-02T03:12:26;100415.84;;;6.63;50.36
31088;BME280;17745;55.914;37.554;2024-03-02T03:14:55;100420.94;;;6.65;50.38
31088;BME280;17745;55.914;37.554;2024-03-02T03:17:23;100424.19;;;6.67;50.37
31088;BME280;17745;55.914;37.554;2024-03-02T03:19:50;100424.78;;;6.69;50.33
31088;BME280;17745;55.914;37.554;2024-03-02T03:22:16;100424.56;;;6.70;50.28
31088;BME280;17745;55.914;37.554;2024-03-02T03:24:44;100421.31;;;6.68;50.27
31088;BME280;17745;55.914;37.554;2024-03-02T03:27:11;100424.34;;;6.65;50.31
31088;BME280;17745;55.914;37.554;2024-03-02T03:29:40;100418.47;;;6.63;50.34
31088;BME280;17745;55.914;37.554;2024-03-02T03:32:09;100418.47;;;6.63;50.38
31088;BME280;17745;55.914;37.554;2024-03-02T03:34:38;100419.50;;;6.62;50.40
31088;BME280;17745;55.914;37.554;2024-03-02T03:37:07;100414.81;;;6.57;50.41
31088;BME280;17745;55.914;37.554;2024-03-02T03:39:35;100414.19;;;6.55;50.40
31088;BME280;17745;55.914;37.554;2024-03-02T03:42:06;100422.66;;;6.51;50.45
31088;BME280;17745;55.914;37.554;2024-03-02T03:44:34;100419.22;;;6.50;50.49
31088;BME280;17745;55.914;37.554;2024-03-02T03:47:02;100404.62;;;6.48;50.51
31088;BME280;17745;55.914;37.554;2024-03-02T03:49:31;100409.91;;;6.48;50.55
31088;BME280;17745;55.914;37.554;2024-03-02T03:52:01;100418.62;;;6.48;50.58
31088;BME280;17745;55.914;37.554;2024-03-02T03:54:29;100407.28;;;6.48;50.49
31088;BME280;17745;55.914;37.554;2024-03-02T03:56:58;100410.28;;;6.44;50.53
31088;BME280;17745;55.914;37.554;2024-03-02T03:59:28;100409.50;;;6.44;50.57
31088;BME280;17745;55.914;37.554;2024-03-02T04:01:55;100412.75;;;6.46;50.52
31088;BME280;17745;55.914;37.554;2024-03-02T04:04:27;100413.37;;;6.48;50.46
31088;BME280;17745;55.914;37.554;2024-03-02T04:06:56;100410.91;;;6.47;50.59
31088;BME280;17745;55.914;37.554;2024-03-02T04:09:23;100408.50;;;6.45;50.54
31088;BME280;17745;55.914;37.554;2024-03-02T04:11:51;100404.03;;;6.46;50.52
31088;BME280;17745;55.914;37.554;2024-03-02T04:14:19;100406.22;;;6.42;50.57
31088;BME280;17745;55.914;37.554;2024-03-02T04:16:46;100403.59;;;6.42;50.65
31088;BME280;17745;55.914;37.554;2024-03-02T04:19:13;100413.13;;;6.43;50.67
31088;BME280;17745;55.914;37.554;2024-03-02T04:21:41;100407.66;;;6.44;50.66
31088;BME280;17745;55.914;37.554;2024-03-02T04:24:09;100411.75;;;6.47;50.64
31088;BME280;17745;55.914;37.554;2024-03-02T04:26:37;100413.16;;;6.50;50.57
31088;BME280;17745;55.914;37.554;2024-03-02T04:29:05;100406.69;;;6.52;50.52
31088;BME280;17745;55.914;37.554;2024-03-02T04:31:34;100409.50;;;6.51;50.55
31088;BME280;17745;55.914;37.554;2024-03-02T04:34:02;100413.97;;;6.50;50.57
31088;BME280;17745;55.914;37.554;2024-03-02T04:36:29;100414.38;;;6.47;50.59
31088;BME280;17745;55.914;37.554;2024-03-02T04:38:56;100420.03;;;6.44;50.64
31088;BME280;17745;55.914;37.554;2024-03-02T04:41:25;100418.16;;;6.38;50.66
31088;BME280;17745;55.914;37.554;2024-03-02T04:43:53;100415.91;;;6.35;50.73
31088;BME280;17745;55.914;37.554;2024-03-02T04:46:21;100415.12;;;6.34;50.75
31088;BME280;17745;55.914;37.554;2024-03-02T04:48:49;100416.13;;;6.33;50.81
31088;BME280;17745;55.914;37.554;2024-03-02T04:51:21;100413.28;;;6.35;50.84
31088;BME280;17745;55.914;37.554;2024-03-02T04:53:49;100417.16;;;6.39;50.86
31088;BME280;17745;55.914;37.554;2024-03-02T04:56:16;100417.16;;;6.39;50.86
31088;BME280;17745;55.914;37.554;2024-03-02T04:59:11;100419.78;;;6.39;50.87
31088;BME280;17745;55.914;37.554;2024-03-02T05:01:39;100422.38;;;6.32;50.96
31088;BME280;17745;55.914;37.554;2024-03-02T05:04:06;100417.94;;;6.33;51.01
31088;BME280;17745;55.914;37.554;2024-03-02T05:06:33;100423.81;;;6.35;51.03
31088;BME280;17745;55.914;37.554;2024-03-02T05:09:01;100413.13;;;6.43;50.91
31088;BME280;17745;55.914;37.554;2024-03-02T05:11:32;100417.19;;;6.46;50.90
31088;BME280;17745;55.914;37.554;2024-03-02T05:14:21;100416.41;;;6.52;50.88
31088;BME280;17745;55.914;37.554;2024-03-02T05:16:47;100416.81;;;6.55;50.88
31088;BME280;17745;55.914;37.554;2024-03-02T05:19:15;100411.16;;;6.58;50.85
31088;BME280;17745;55.914;37.554;2024-03-02T05:21:44;100415.25;;;6.61;50.83
31088;BME280;17745;55.914;37.554;2024-03-02T05:24:12;100410.78;;;6.62;50.90
31088;BME280;17745;55.914;37.554;2024-03-02T05:26:39;100408.97;;;6.62;50.92
31088;BME280;17745;55.914;37.554;2024-03-02T05:29:07;100412.81;;;6.66;50.88
31088;BME280;17745;55.914;37.554;2024-03-02T05:31:36;100409.59;;;6.71;50.83
31088;BME280;17745;55.914;37.554;2024-03-02T05:34:05;100410.00;;;6.68;50.87
31088;BME280;17745;55.914;37.554;2024-03-02T05:36:34;100411.62;;;6.69;50.91
31088;BME280;17745;55.914;37.554;2024-03-02T05:39:07;100414.88;;;6.71;50.90
31088;BME280;17745;55.914;37.554;2024-03-02T05:41:39;100414.03;;;6.70;50.84
31088;BME280;17745;55.914;37.554;2024-03-02T05:44:12;100416.91;;;6.76;50.89
31088;BME280;17745;55.914;37.554;2024-03-02T05:46:44;100415.09;;;6.76;50.87
31088;BME280;17745;55.914;37.554;2024-03-02T05:49:14;100416.91;;;6.76;50.93
31088;BME280;17745;55.914;37.554;2024-03-02T05:51:45;100428.84;;;6.78;50.97
31088;BME280;17745;55.914;37.554;2024-03-02T05:54:21;100429.06;;;6.77;50.91
31088;BME280;17745;55.914;37.554;2024-03-02T05:56:54;100432.09;;;6.74;50.86
31088;BME280;17745;55.914;37.554;2024-03-02T05:59:44;100431.47;;;6.71;50.92
31088;BME280;17745;55.914;37.554;2024-03-02T06:02:13;100434.50;;;6.68;51.05
31088;BME280;17745;55.914;37.554;2024-03-02T06:04:45;100431.84;;;6.68;51.07
31088;BME280;17745;55.914;37.554;2024-03-02T06:07:16;100436.53;;;6.73;51.08
31088;BME280;17745;55.914;37.554;2024-03-02T06:09:50;100440.22;;;6.79;51.05
31088;BME280;17745;55.914;37.554;2024-03-02T06:12:27;100440.22;;;6.79;51.01
31088;BME280;17745;55.914;37.554;2024-03-02T06:15:17;100434.56;;;6.82;51.09
31088;BME280;17745;55.914;37.554;2024-03-02T06:21:09;100432.56;;;6.91;51.04
31088;BME280;17745;55.914;37.554;2024-03-02T06:23:38;100432.19;;;7.00;50.97
31088;BME280;17745;55.914;37.554;2024-03-02T06:26:10;100431.59;;;7.05;50.94
31088;BME280;17745;55.914;37.554;2024-03-02T06:29:16;100432.41;;;7.12;50.92
31088;BME280;17745;55.914;37.554;2024-03-02T06:31:53;100435.66;;;7.14;50.91
31088;BME280;17745;55.914;37.554;2024-03-02T06:34:20;100435.69;;;7.21;50.88
31088;BME280;17745;55.914;37.554;2024-03-02T06:36:50;100441.38;;;7.25;50.85
31088;BME280;17745;55.914;37.554;2024-03-02T06:39:18;100436.91;;;7.25;50.88
31088;BME280;17745;55.914;37.554;2024-03-02T06:41:45;100434.25;;;7.25;50.84
31088;BME280;17745;55.914;37.554;2024-03-02T06:44:14;100430.84;;;7.25;50.92
31088;BME280;17745;55.914;37.554;2024-03-02T06:46:41;100441.38;;;7.25;50.95
31088;BME280;17745;55.914;37.554;2024-03-02T06:49:09;100436.09;;;7.25;51.01
31088;BME280;17745;55.914;37.554;2024-03-02T06:51:37;100442.34;;;7.24;51.02
31088;BME280;17745;55.914;37.554;2024-03-02T06:54:06;100444.63;;;7.27;51.10
31088;BME280;17745;55.914;37.554;2024-03-02T06:56:34;100440.56;;;7.31;51.12
31088;BME280;17745;55.914;37.554;2024-03-02T06:59:02;100439.34;;;7.40;51.07
31088;BME280;17745;55.914;37.554;2024-03-02T07:01:29;100444.44;;;7.49;51.00
31088;BME280;17745;55.914;37.554;2024-03-02T07:03:56;100441.00;;;7.55;50.89
31088;BME280;17745;55.914;37.554;2024-03-02T07:06:26;100446.69;;;7.58;50.79
31088;BME280;17745;55.914;37.554;2024-03-02T07:08:54;100439.78;;;7.57;50.70
31088;BME280;17745;55.914;37.554;2024-03-02T07:11:23;100442.81;;;7.54;50.63
31088;BME280;17745;55.914;37.554;2024-03-02T07:13:51;100450.31;;;7.51;50.72
31088;BME280;17745;55.914;37.554;2024-03-02T07:16:20;100451.94;;;7.52;50.76
31088;BME280;17745;55.914;37.554;2024-03-02T07:18:57;100447.28;;;7.47;50.87
31088;BME280;17745;55.914;37.554;2024-03-02T07:21:28;100450.72;;;7.48;51.03
31088;BME280;17745;55.914;37.554;2024-03-02T07:23:56;100446.87;;;7.50;51.00
31088;BME280;17745;55.914;37.554;2024-03-02T07:26:28;100448.28;;;7.53;51.10
31088;BME280;17745;55.914;37.554;2024-03-02T07:28:57;100447.28;;;7.54;50.94
31088;BME280;17745;55.914;37.554;2024-03-02T07:31:26;100446.87;;;7.57;50.98
31088;BME280;17745;55.914;37.554;2024-03-02T07:33:54;100446.69;;;7.58;50.93
31088;BME280;17745;55.914;37.554;2024-03-02T07:36:25;100441.41;;;7.58;51.00
31088;BME280;17745;55.914;37.554;2024-03-02T07:39:00;100449.09;;;7.60;50.97
31088;BME280;17745;55.914;37.554;2024-03-02T07:41:31;100452.56;;;7.67;50.92
31088;BME280;17745;55.914;37.554;2024-03-02T07:44:05;100438.16;;;7.77;50.92
31088;BME280;17745;55.914;37.554;2024-03-02T07:46:40;100434.28;;;7.93;50.86
31088;BME280;17745;55.914;37.554;2024-03-02T07:49:09;100435.91;;;8.07;50.69
31088;BME280;17745;55.914;37.554;2024-03-02T07:51:37;100430.03;;;8.12;50.68
31088;BME280;17745;55.914;37.554;2024-03-02T07:54:05;100424.34;;;8.15;50.75
31088;BME280;17745;55.914;37.554;2024-03-02T07:56:37;100430.22;;;8.17;50.86
31088;BME280;17745;55.914;37.554;2024-03-02T07:59:08;100423.91;;;8.25;50.84
31088;BME280;17745;55.914;37.554;2024-03-02T08:01:49;100428.34;;;8.31;50.66
31088;BME280;17745;55.914;37.554;2024-03-02T08:04:19;100427.94;;;8.34;50.65
31088;BME280;17745;55.914;37.554;2024-03-02T08:06:56;100430.56;;;8.41;50.61
31088;BME280;17745;55.914;37.554;2024-03-02T08:09:27;100428.34;;;8.51;50.58
31088;BME280;17745;55.914;37.554;2024-03-02T08:11:58;100437.66;;;8.54;50.41
31088;BME280;17745;55.914;37.554;2024-03-02T08:14:29;100426.72;;;8.50;50.54
31088;BME280;17745;55.914;37.554;2024-03-02T08:16:58;100420.81;;;8.48;50.55
31088;BME280;17745;55.914;37.554;2024-03-02T08:19:27;100428.72;;;8.48;50.45
31088;BME280;17745;55.914;37.554;2024-03-02T08:21:54;100430.97;;;8.44;50.55
31088;BME280;17745;55.914;37.554;2024-03-02T08:24:22;100433.00;;;8.49;50.47
31088;BME280;17745;55.914;37.554;2024-03-02T08:26:50;100432.41;;;8.47;50.33
31088;BME280;17745;55.914;37.554;2024-03-02T08:29:20;100429.53;;;8.49;50.32
31088;BME280;17745;55.914;37.554;2024-03-02T08:31:48;100424.88;;;8.51;50.34
31088;BME280;17745;55.914;37.554;2024-03-02T08:34:16;100430.97;;;8.58;50.26
31088;BME280;17745;55.914;37.554;2024-03-02T08:36:47;100432.97;;;8.63;50.19
31088;BME280;17745;55.914;37.554;2024-03-02T08:39:15;100424.25;;;8.62;50.15
31088;BME280;17745;55.914;37.554;2024-03-02T08:41:46;100424.66;;;8.59;50.14
31088;BME280;17745;55.914;37.554;2024-03-02T08:44:16;100414.50;;;8.56;50.00
31088;BME280;17745;55.914;37.554;2024-03-02T08:46:45;100421.03;;;8.53;50.18
31088;BME280;17745;55.914;37.554;2024-03-02T08:49:13;100426.69;;;8.57;50.23
31088;BME280;17745;55.914;37.554;2024-03-02T08:51:42;100424.25;;;8.55;50.16
31088;BME280;17745;55.914;37.554;2024-03-02T08:54:12;100425.06;;;8.56;50.20
31088;BME280;17745;55.914;37.554;2024-03-02T08:56:41;100422.41;;;8.63;50.17
31088;BME280;17745;55.914;37.554;2024-03-02T08:59:08;100426.63;;;8.70;50.11
31088;BME280;17745;55.914;37.554;2024-03-02T09:01:36;100425.00;;;8.76;50.06
31088;BME280;17745;55.914;37.554;2024-03-02T09:04:09;100428.44;;;8.77;49.92
31088;BME280;17745;55.914;37.554;2024-03-02T09:06:42;100422.34;;;8.76;49.66
31088;BME280;17745;55.914;37.554;2024-03-02T09:09:14;100421.94;;;8.72;49.69
31088;BME280;17745;55.914;37.554;2024-03-02T09:11:42;100426.00;;;8.75;49.71
31088;BME280;17745;55.914;37.554;2024-03-02T09:14:11;100422.53;;;8.81;49.60
31088;BME280;17745;55.914;37.554;2024-03-02T09:16:41;100418.88;;;8.82;49.42
31088;BME280;17745;55.914;37.554;2024-03-02T09:19:13;100416.41;;;8.87;49.34
31088;BME280;17745;55.914;37.554;2024-03-02T09:21:42;100418.62;;;8.91;49.35
31088;BME280;17745;55.914;37.554;2024-03-02T09:24:11;100420.88;;;8.87;49.27
31088;BME280;17745;55.914;37.554;2024-03-02T09:26:39;100420.88;;;8.87;49.18
31088;BME280;17745;55.914;37.554;2024-03-02T09:29:06;100423.34;;;8.82;49.33
31088;BME280;17745;55.914;37.554;2024-03-02T09:31:38;100418.50;;;8.79;49.50
31088;BME280;17745;55.914;37.554;2024-03-02T09:34:06;100418.44;;;8.85;49.47
31088;BME280;17745;55.914;37.554;2024-03-02T09:36:36;100420.06;;;8.86;49.42
31088;BME280;17745;55.914;37.554;2024-03-02T09:39:09;100421.91;;;8.86;49.42
31088;BME280;17745;55.914;37.554;2024-03-02T09:41:37;100414.56;;;8.95;49.30
31088;BME280;17745;55.914;37.554;2024-03-02T09:44:05;100406.59;;;9.01;49.00
31088;BME280;17745;55.914;37.554;2024-03-02T09:46:33;100400.09;;;8.97;48.95
31088;BME280;17745;55.914;37.554;2024-03-02T09:49:02;100404.16;;;9.00;48.98
31088;BME280;17745;55.914;37.554;2024-03-02T09:51:29;100405.09;;;9.12;48.73
31088;BME280;17745;55.914;37.554;2024-03-02T09:54:00;100402.47;;;9.12;48.45
31088;BME280;17745;55.914;37.554;2024-03-02T09:56:31;100401.00;;;9.17;48.31
31088;BME280;17745;55.914;37.554;2024-03-02T09:58:59;100407.91;;;9.18;48.37
31088;BME280;17745;55.914;37.554;2024-03-02T10:01:27;100402.91;;;9.09;48.42
31088;BME280;17745;55.914;37.554;2024-03-02T10:03:56;100400.63;;;9.13;48.54
31088;BME280;17745;55.914;37.554;2024-03-02T10:06:28;100400.16;;;9.23;48.48
31088;BME280;17745;55.914;37.554;2024-03-02T10:08:56;100404.16;;;9.32;48.43
31088;BME280;17745;55.914;37.554;2024-03-02T10:11:28;100406.69;;;9.46;48.35
31088;BME280;17745;55.914;37.554;2024-03-02T10:14:05;100403.09;;;9.65;48.33
31088;BME280;17745;55.914;37.554;2024-03-02T10:16:35;100401.94;;;9.80;48.14
31088;BME280;17745;55.914;37.554;2024-03-02T10:19:17;100402.69;;;9.87;47.82
31088;BME280;17745;55.914;37.554;2024-03-02T10:21:46;100399.63;;;9.90;47.99
31088;BME280;17745;55.914;37.554;2024-03-02T10:24:35;100405.88;;;9.96;47.98
31088;BME280;17745;55.914;37.554;2024-03-02T10:33:15;100412.53;;;10.24;47.55
31088;BME280;17745;55.914;37.554;2024-03-02T10:35:47;100415.00;;;10.19;47.81
31088;BME280;17745;55.914;37.554;2024-03-02T10:38:18;100418.59;;;10.24;47.82
31088;BME280;17745;55.914;37.554;2024-03-02T10:40:50;100412.47;;;10.30;47.44
31088;BME280;17745;55.914;37.554;2024-03-02T10:43:24;100421.34;;;10.36;47.34
31088;BME280;17745;55.914;37.554;2024-03-02T10:45:53;100421.78;;;10.33;47.08
31088;BME280;17745;55.914;37.554;2024-03-02T10:48:31;100423.03;;;10.30;46.99
31088;BME280;17745;55.914;37.554;2024-03-02T10:51:02;100422.81;;;10.32;46.94
31088;BME280;17745;55.914;37.554;2024-03-02T10:53:42;100425.16;;;10.22;47.08
31088;BME280;17745;55.914;37.554;2024-03-02T10:56:15;100428.53;;;10.10;47.31
31088;BME280;17745;55.914;37.554;2024-03-02T10:58:52;100427.34;;;10.06;47.50
31088;BME280;17745;55.914;37.554;2024-03-02T11:01:34;100425.66;;;9.93;47.55
31088;BME280;17745;55.914;37.554;2024-03-02T11:04:31;100426.72;;;9.85;47.65
31088;BME280;17745;55.914;37.554;2024-03-02T11:07:03;100423.53;;;9.77;47.56
31088;BME280;17745;55.914;37.554;2024-03-02T11:09:37;100427.22;;;9.76;47.62
31088;BME280;17745;55.914;37.554;2024-03-02T11:12:09;100418.66;;;9.80;47.62
31088;BME280;17745;55.914;37.554;2024-03-02T11:14:40;100420.63;;;9.85;47.52
31088;BME280;17745;55.914;37.554;2024-03-02T11:17:10;100418.34;;;9.89;47.42
31088;BME280;17745;55.914;37.554;2024-03-02T11:19:41;100422.63;;;9.90;47.32
31088;BME280;17745;55.914;37.554;2024-03-02T11:22:09;100419.00;;;9.84;47.31
31088;BME280;17745;55.914;37.554;2024-03-02T11:24:42;100419.87;;;9.78;47.40
31088;BME280;17745;55.914;37.554;2024-03-02T11:27:20;100425.25;;;9.64;47.43
31088;BME280;17745;55.914;37.554;2024-03-02T11:30:07;100420.91;;;9.51;47.42
31088;BME280;17745;55.914;37.554;2024-03-02T11:32:36;100418.56;;;9.36;47.54
31088;BME280;17745;55.914;37.554;2024-03-02T11:35:07;100416.03;;;9.16;47.69
31088;BME280;17745;55.914;37.554;2024-03-02T11:37:35;100408.56;;;9.06;47.86
31088;BME280;17745;55.914;37.554;2024-03-02T11:40:04;100403.53;;;9.05;47.87
31088;BME280;17745;55.914;37.554;2024-03-02T11:42:33;100400.03;;;9.11;47.88
31088;BME280;17745;55.914;37.554;2024-03-02T11:45:09;100397.31;;;9.24;47.81
31088;BME280;17745;55.914;37.554;2024-03-02T11:47:46;100402.28;;;9.39;47.58
31088;BME280;17745;55.914;37.554;2024-03-02T12:06:22;100392.63;;;9.52;47.13
31088;BME280;17745;55.914;37.554;2024-03-02T12:09:45;100398.12;;;9.50;47.24
31088;BME280;17745;55.914;37.554;2024-03-02T12:15:39;100397.72;;;9.47;47.22
31088;BME280;17745;55.914;37.554;2024-03-02T12:18:43;100399.34;;;9.48;47.28
31088;BME280;17745;55.914;37.554;2024-03-02T12:24:55;100403.13;;;9.33;47.01
31088;BME280;17745;55.914;37.554;2024-03-02T12:27:53;100403.22;;;9.20;47.07
31088;BME280;17745;55.914;37.554;2024-03-02T12:43:44;100401.41;;;8.81;47.10
31088;BME280;17745;55.914;37.554;2024-03-02T12:56:13;100399.44;;;8.70;47.10
31088;BME280;17745;55.914;37.554;2024-03-02T14:31:57;100438.88;;;7.10;47.08
31088;BME280;17745;55.914;37.554;2024-03-02T14:34:48;100433.19;;;6.99;47.16
31088;BME280;17745;55.914;37.554;2024-03-02T14:37:50;100433.97;;;6.93;47.25
31088;BME280;17745;55.914;37.554;2024-03-02T14:56:09;100419.34;;;6.77;47.28
31088;BME280;17745;55.914;37.554;2024-03-02T14:58:42;100430.69;;;6.78;47.27
31088;BME280;17745;55.914;37.554;2024-03-02T15:01:13;100424.81;;;6.76;47.25
31088;BME280;17745;55.914;37.554;2024-03-02T15:22:46;100422.09;;;6.55;47.49
31088;BME280;17745;55.914;37.554;2024-03-02T15:25:17;100426.34;;;6.56;47.47
31088;BME280;17745;55.914;37.554;2024-03-02T15:34:35;100422.09;;;6.55;47.46
31088;BME280;17745;55.914;37.554;2024-03-02T19:23:56;100494.22;;;3.02;50.73
31088;BME280;17745;55.914;37.554;2024-03-02T19:26:39;100484.91;;;2.99;50.69
31088;BME280;17745;55.914;37.554;2024-03-02T19:29:13;100492.28;;;2.96;50.69
31088;BME280;17745;55.914;37.554;2024-03-02T19:31:47;100489.84;;;2.94;50.69
31088;BME280;17745;55.914;37.554;2024-03-02T19:34:31;100488.37;;;2.92;50.74
31088;BME280;17745;55.914;37.554;2024-03-02T19:37:27;100483.47;;;2.89;50.77
31088;BME280;17745;55.914;37.554;2024-03-02T19:40:47;100487.28;;;2.86;50.81
31088;BME280;17745;55.914;37.554;2024-03-02T19:43:22;100481.56;;;2.82;50.77
31088;BME280;17745;55.914;37.554;2024-03-02T19:46:38;100484.31;;;2.81;50.75
31088;BME280;17745;55.914;37.554;2024-03-02T19:49:11;100488.28;;;2.77;50.79
31088;BME280;17745;55.914;37.554;2024-03-02T19:51:50;100495.47;;;2.75;50.77
31088;BME280;17745;55.914;37.554;2024-03-02T19:54:37;100491.37;;;2.72;50.79
31088;BME280;17745;55.914;37.554;2024-03-02T19:57:11;100484.72;;;2.69;50.84
31088;BME280;17745;55.914;37.554;2024-03-02T20:03:20;100490.44;;;2.65;50.93
31088;BME280;17745;55.914;37.554;2024-03-02T20:06:09;100497.63;;;2.63;50.93
31088;BME280;17745;55.914;37.554;2024-03-02T20:09:02;100498.78;;;2.60;50.92
31088;BME280;17745;55.914;37.554;2024-03-02T20:11:35;100491.44;;;2.55;50.92
31088;BME280;17745;55.914;37.554;2024-03-02T20:14:10;100497.00;;;2.52;50.94